sensor_id;sensor_type;location;lat;lon;timestamp;P1;durP1;ratioP1;P2;durP2;ratioP2
49101;SDS011;34913;47.520;19.186;2023-07-09T00:00:05;8.15;;;4.57;;
49101;SDS011;34913;47.520;19.186;2023-07-09T00:02:39;7.68;;;4.90;;
49101;SDS011;34913;47.520;19.186;2023-07-09T00:05:04;6.35;;;4.50;;
49101;SDS011;34913;47.520;19.186;2023-07-09T00:07:31;8.65;;;4.80;;
49101;SDS011;34913;47.520;19.186;2023-07-09T00:09:58;8.45;;;4.63;;
49101;SDS011;34913;47.520;19.186;2023-07-09T00:12:24;7.20;;;4.80;;
49101;SDS011;34913;47.520;19.186;2023-07-09T00:14:49;8.68;;;4.85;;
49101;SDS011;34913;47.520;19.186;2023-07-09T00:17:19;6.75;;;4.47;;
49101;SDS011;34913;47.520;19.186;2023-07-09T00:19:48;6.82;;;4.20;;
49101;SDS011;34913;47.520;19.186;2023-07-09T00:22:16;7.25;;;4.60;;
49101;SDS011;34913;47.520;19.186;2023-07-09T00:24:43;6.70;;;4.72;;
49101;SDS011;34913;47.520;19.186;2023-07-09T00:27:10;11.80;;;4.82;;
49101;SDS011;34913;47.520;19.186;2023-07-09T00:29:36;7.20;;;4.75;;
49101;SDS011;34913;47.520;19.186;2023-07-09T00:32:02;7.05;;;4.95;;
49101;SDS011;34913;47.520;19.186;2023-07-09T00:34:27;5.00;;;4.50;;
49101;SDS011;34913;47.520;19.186;2023-07-09T00:36:53;4.93;;;4.43;;
49101;SDS011;34913;47.520;19.186;2023-07-09T00:39:19;7.57;;;4.82;;
49101;SDS011;34913;47.520;19.186;2023-07-09T00:41:47;6.05;;;4.65;;
49101;SDS011;34913;47.520;19.186;2023-07-09T00:49:14;7.40;;;4.90;;
49101;SDS011;34913;47.520;19.186;2023-07-09T00:51:43;7.70;;;5.07;;
49101;SDS011;34913;47.520;19.186;2023-07-09T00:54:27;4.97;;;4.38;;
49101;SDS011;34913;47.520;19.186;2023-07-09T00:57:01;8.20;;;5.18;;
49101;SDS011;34913;47.520;19.186;2023-07-09T00:59:33;6.93;;;4.55;;
49101;SDS011;34913;47.520;19.186;2023-07-09T01:01:59;6.32;;;4.20;;
49101;SDS011;34913;47.520;19.186;2023-07-09T01:04:28;6.85;;;4.60;;
49101;SDS011;34913;47.520;19.186;2023-07-09T01:06:55;5.55;;;4.40;;
49101;SDS011;34913;47.520;19.186;2023-07-09T01:09:21;5.70;;;4.32;;
49101;SDS011;34913;47.520;19.186;2023-07-09T01:11:48;7.13;;;4.68;;
49101;SDS011;34913;47.520;19.186;2023-07-09T01:14:14;7.93;;;4.70;;
49101;SDS011;34913;47.520;19.186;2023-07-09T01:16:46;8.40;;;4.93;;
49101;SDS011;34913;47.520;19.186;2023-07-09T01:19:22;4.93;;;4.22;;
49101;SDS011;34913;47.520;19.186;2023-07-09T01:21:56;10.30;;;5.05;;
49101;SDS011;34913;47.520;19.186;2023-07-09T01:27:10;7.55;;;4.88;;
49101;SDS011;34913;47.520;19.186;2023-07-09T01:29:36;8.90;;;4.78;;
49101;SDS011;34913;47.520;19.186;2023-07-09T01:32:03;8.13;;;5.15;;
49101;SDS011;34913;47.520;19.186;2023-07-09T01:34:31;6.10;;;4.35;;
49101;SDS011;34913;47.520;19.186;2023-07-09T01:36:57;6.82;;;4.55;;
49101;SDS011;34913;47.520;19.186;2023-07-09T01:39:23;8.15;;;4.63;;
49101;SDS011;34913;47.520;19.186;2023-07-09T01:41:48;9.20;;;5.13;;
49101;SDS011;34913;47.520;19.186;2023-07-09T01:44:14;7.85;;;4.97;;
49101;SDS011;34913;47.520;19.186;2023-07-09T01:46:39;8.13;;;4.70;;
49101;SDS011;34913;47.520;19.186;2023-07-09T01:49:04;5.78;;;4.65;;
49101;SDS011;34913;47.520;19.186;2023-07-09T01:51:32;6.97;;;4.70;;
49101;SDS011;34913;47.520;19.186;2023-07-09T01:53:58;7.25;;;4.80;;
49101;SDS011;34913;47.520;19.186;2023-07-09T01:56:26;5.93;;;4.60;;
49101;SDS011;34913;47.520;19.186;2023-07-09T01:58:51;6.47;;;4.72;;
49101;SDS011;34913;47.520;19.186;2023-07-09T02:01:17;7.68;;;5.18;;
49101;SDS011;34913;47.520;19.186;2023-07-09T02:03:44;13.77;;;5.22;;
49101;SDS011;34913;47.520;19.186;2023-07-09T02:06:10;13.25;;;5.82;;
49101;SDS011;34913;47.520;19.186;2023-07-09T02:08:36;16.58;;;6.18;;
49101;SDS011;34913;47.520;19.186;2023-07-09T02:11:01;13.52;;;5.95;;
49101;SDS011;34913;47.520;19.186;2023-07-09T02:13:27;9.90;;;5.25;;
49101;SDS011;34913;47.520;19.186;2023-07-09T02:15:52;9.00;;;4.82;;
49101;SDS011;34913;47.520;19.186;2023-07-09T02:18:18;10.20;;;5.35;;
49101;SDS011;34913;47.520;19.186;2023-07-09T02:20:45;17.40;;;6.50;;
49101;SDS011;34913;47.520;19.186;2023-07-09T02:23:11;14.90;;;5.95;;
49101;SDS011;34913;47.520;19.186;2023-07-09T02:25:36;12.75;;;5.45;;
49101;SDS011;34913;47.520;19.186;2023-07-09T02:28:02;15.77;;;6.07;;
49101;SDS011;34913;47.520;19.186;2023-07-09T02:30:27;14.07;;;6.05;;
49101;SDS011;34913;47.520;19.186;2023-07-09T02:32:53;19.80;;;6.53;;
49101;SDS011;34913;47.520;19.186;2023-07-09T02:35:19;18.42;;;6.65;;
49101;SDS011;34913;47.520;19.186;2023-07-09T02:37:47;14.38;;;6.72;;
49101;SDS011;34913;47.520;19.186;2023-07-09T02:40:13;15.18;;;6.28;;
49101;SDS011;34913;47.520;19.186;2023-07-09T02:42:40;19.85;;;6.85;;
49101;SDS011;34913;47.520;19.186;2023-07-09T02:45:05;10.68;;;6.15;;
49101;SDS011;34913;47.520;19.186;2023-07-09T02:47:31;13.63;;;6.10;;
49101;SDS011;34913;47.520;19.186;2023-07-09T02:49:57;8.43;;;5.60;;
49101;SDS011;34913;47.520;19.186;2023-07-09T02:52:22;10.25;;;5.63;;
49101;SDS011;34913;47.520;19.186;2023-07-09T02:54:48;11.70;;;6.00;;
49101;SDS011;34913;47.520;19.186;2023-07-09T02:57:13;6.82;;;5.53;;
49101;SDS011;34913;47.520;19.186;2023-07-09T02:59:38;5.68;;;4.88;;
49101;SDS011;34913;47.520;19.186;2023-07-09T03:02:04;8.45;;;5.32;;
49101;SDS011;34913;47.520;19.186;2023-07-09T03:04:30;10.35;;;5.82;;
49101;SDS011;34913;47.520;19.186;2023-07-09T03:06:56;7.47;;;5.18;;
49101;SDS011;34913;47.520;19.186;2023-07-09T03:09:22;7.65;;;5.72;;
49101;SDS011;34913;47.520;19.186;2023-07-09T03:11:48;7.90;;;5.88;;
49101;SDS011;34913;47.520;19.186;2023-07-09T03:14:14;7.70;;;5.13;;
49101;SDS011;34913;47.520;19.186;2023-07-09T03:16:40;7.18;;;5.90;;
49101;SDS011;34913;47.520;19.186;2023-07-09T03:19:05;6.22;;;5.30;;
49101;SDS011;34913;47.520;19.186;2023-07-09T03:21:31;10.13;;;6.30;;
49101;SDS011;34913;47.520;19.186;2023-07-09T03:23:57;6.57;;;5.95;;
49101;SDS011;34913;47.520;19.186;2023-07-09T03:26:23;10.02;;;6.45;;
49101;SDS011;34913;47.520;19.186;2023-07-09T03:28:50;9.50;;;6.38;;
49101;SDS011;34913;47.520;19.186;2023-07-09T03:31:16;9.48;;;5.90;;
49101;SDS011;34913;47.520;19.186;2023-07-09T03:33:41;9.02;;;6.03;;
49101;SDS011;34913;47.520;19.186;2023-07-09T03:36:07;8.38;;;6.20;;
49101;SDS011;34913;47.520;19.186;2023-07-09T03:38:32;10.02;;;6.40;;
49101;SDS011;34913;47.520;19.186;2023-07-09T03:40:58;12.13;;;6.22;;
49101;SDS011;34913;47.520;19.186;2023-07-09T03:43:23;12.93;;;6.55;;
49101;SDS011;34913;47.520;19.186;2023-07-09T03:45:49;9.50;;;6.45;;
49101;SDS011;34913;47.520;19.186;2023-07-09T03:48:16;8.73;;;6.10;;
49101;SDS011;34913;47.520;19.186;2023-07-09T03:50:44;10.20;;;6.47;;
49101;SDS011;34913;47.520;19.186;2023-07-09T03:53:10;7.97;;;6.68;;
49101;SDS011;34913;47.520;19.186;2023-07-09T03:55:36;7.88;;;6.60;;
49101;SDS011;34913;47.520;19.186;2023-07-09T03:58:02;10.65;;;6.72;;
49101;SDS011;34913;47.520;19.186;2023-07-09T04:00:28;9.93;;;6.57;;
49101;SDS011;34913;47.520;19.186;2023-07-09T04:02:54;11.15;;;6.93;;
49101;SDS011;34913;47.520;19.186;2023-07-09T04:05:22;6.68;;;6.00;;
49101;SDS011;34913;47.520;19.186;2023-07-09T04:07:50;7.28;;;6.45;;
49101;SDS011;34913;47.520;19.186;2023-07-09T04:10:16;7.15;;;6.13;;
49101;SDS011;34913;47.520;19.186;2023-07-09T04:12:41;9.73;;;6.55;;
49101;SDS011;34913;47.520;19.186;2023-07-09T04:15:07;9.65;;;6.45;;
49101;SDS011;34913;47.520;19.186;2023-07-09T04:17:33;7.72;;;6.00;;
49101;SDS011;34913;47.520;19.186;2023-07-09T04:19:59;8.65;;;6.00;;
49101;SDS011;34913;47.520;19.186;2023-07-09T04:22:24;6.80;;;6.10;;
49101;SDS011;34913;47.520;19.186;2023-07-09T04:24:50;6.20;;;5.55;;
49101;SDS011;34913;47.520;19.186;2023-07-09T04:27:17;8.32;;;5.80;;
49101;SDS011;34913;47.520;19.186;2023-07-09T04:29:43;9.00;;;5.70;;
49101;SDS011;34913;47.520;19.186;2023-07-09T04:32:12;7.57;;;5.40;;
49101;SDS011;34913;47.520;19.186;2023-07-09T04:34:39;7.15;;;5.30;;
49101;SDS011;34913;47.520;19.186;2023-07-09T04:37:08;8.32;;;5.50;;
49101;SDS011;34913;47.520;19.186;2023-07-09T04:39:35;7.85;;;5.20;;
49101;SDS011;34913;47.520;19.186;2023-07-09T04:42:00;7.28;;;5.78;;
49101;SDS011;34913;47.520;19.186;2023-07-09T04:44:26;8.00;;;5.80;;
49101;SDS011;34913;47.520;19.186;2023-07-09T04:46:51;5.93;;;5.30;;
49101;SDS011;34913;47.520;19.186;2023-07-09T04:49:17;7.15;;;5.40;;
49101;SDS011;34913;47.520;19.186;2023-07-09T04:51:42;9.50;;;5.97;;
49101;SDS011;34913;47.520;19.186;2023-07-09T04:54:08;7.85;;;5.70;;
49101;SDS011;34913;47.520;19.186;2023-07-09T04:56:33;7.22;;;5.50;;
49101;SDS011;34913;47.520;19.186;2023-07-09T04:58:58;9.95;;;5.78;;
49101;SDS011;34913;47.520;19.186;2023-07-09T05:01:24;8.68;;;4.60;;
49101;SDS011;34913;47.520;19.186;2023-07-09T05:03:49;7.15;;;4.97;;
49101;SDS011;34913;47.520;19.186;2023-07-09T05:06:15;7.55;;;4.93;;
49101;SDS011;34913;47.520;19.186;2023-07-09T05:08:40;5.85;;;4.32;;
49101;SDS011;34913;47.520;19.186;2023-07-09T05:11:06;7.63;;;4.40;;
49101;SDS011;34913;47.520;19.186;2023-07-09T05:13:32;8.15;;;4.70;;
49101;SDS011;34913;47.520;19.186;2023-07-09T05:15:57;6.38;;;4.25;;
49101;SDS011;34913;47.520;19.186;2023-07-09T05:18:23;5.10;;;4.43;;
49101;SDS011;34913;47.520;19.186;2023-07-09T05:20:49;5.40;;;3.97;;
49101;SDS011;34913;47.520;19.186;2023-07-09T05:23:14;6.15;;;4.22;;
49101;SDS011;34913;47.520;19.186;2023-07-09T05:25:39;6.57;;;4.40;;
49101;SDS011;34913;47.520;19.186;2023-07-09T05:28:05;6.65;;;3.75;;
49101;SDS011;34913;47.520;19.186;2023-07-09T05:30:31;10.02;;;3.88;;
49101;SDS011;34913;47.520;19.186;2023-07-09T05:32:57;6.90;;;4.22;;
49101;SDS011;34913;47.520;19.186;2023-07-09T05:35:25;7.95;;;4.00;;
49101;SDS011;34913;47.520;19.186;2023-07-09T05:37:55;8.68;;;3.92;;
49101;SDS011;34913;47.520;19.186;2023-07-09T05:40:21;9.00;;;3.90;;
49101;SDS011;34913;47.520;19.186;2023-07-09T05:42:47;7.45;;;4.10;;
49101;SDS011;34913;47.520;19.186;2023-07-09T05:45:13;4.88;;;3.80;;
49101;SDS011;34913;47.520;19.186;2023-07-09T05:47:39;5.72;;;3.83;;
49101;SDS011;34913;47.520;19.186;2023-07-09T05:50:05;7.22;;;3.95;;
49101;SDS011;34913;47.520;19.186;2023-07-09T05:52:31;7.10;;;4.43;;
49101;SDS011;34913;47.520;19.186;2023-07-09T05:54:56;5.88;;;3.97;;
49101;SDS011;34913;47.520;19.186;2023-07-09T05:57:22;5.40;;;4.20;;
49101;SDS011;34913;47.520;19.186;2023-07-09T05:59:48;3.92;;;3.53;;
49101;SDS011;34913;47.520;19.186;2023-07-09T06:02:14;4.38;;;3.25;;
49101;SDS011;34913;47.520;19.186;2023-07-09T06:04:40;5.25;;;3.53;;
49101;SDS011;34913;47.520;19.186;2023-07-09T06:07:07;5.93;;;3.70;;
49101;SDS011;34913;47.520;19.186;2023-07-09T06:09:34;5.97;;;3.28;;
49101;SDS011;34913;47.520;19.186;2023-07-09T06:11:59;4.90;;;3.08;;
49101;SDS011;34913;47.520;19.186;2023-07-09T06:14:26;5.47;;;3.45;;
49101;SDS011;34913;47.520;19.186;2023-07-09T06:16:51;4.53;;;3.22;;
49101;SDS011;34913;47.520;19.186;2023-07-09T06:19:17;6.80;;;3.45;;
49101;SDS011;34913;47.520;19.186;2023-07-09T06:21:42;4.88;;;3.70;;
49101;SDS011;34913;47.520;19.186;2023-07-09T06:24:08;5.63;;;3.30;;
49101;SDS011;34913;47.520;19.186;2023-07-09T06:26:34;7.20;;;3.30;;
49101;SDS011;34913;47.520;19.186;2023-07-09T06:28:59;4.55;;;3.65;;
49101;SDS011;34913;47.520;19.186;2023-07-09T06:31:25;7.88;;;3.95;;
49101;SDS011;34913;47.520;19.186;2023-07-09T06:33:51;5.18;;;2.80;;
49101;SDS011;34913;47.520;19.186;2023-07-09T06:36:16;7.10;;;2.83;;
49101;SDS011;34913;47.520;19.186;2023-07-09T06:38:43;3.60;;;2.97;;
49101;SDS011;34913;47.520;19.186;2023-07-09T06:41:09;4.32;;;2.92;;
49101;SDS011;34913;47.520;19.186;2023-07-09T06:43:35;4.35;;;3.10;;
49101;SDS011;34913;47.520;19.186;2023-07-09T06:46:04;5.00;;;3.25;;
49101;SDS011;34913;47.520;19.186;2023-07-09T06:48:30;4.80;;;2.90;;
49101;SDS011;34913;47.520;19.186;2023-07-09T06:50:56;4.68;;;2.78;;
49101;SDS011;34913;47.520;19.186;2023-07-09T06:53:23;4.30;;;3.10;;
49101;SDS011;34913;47.520;19.186;2023-07-09T06:55:49;5.05;;;3.00;;
49101;SDS011;34913;47.520;19.186;2023-07-09T06:58:16;4.82;;;2.78;;
49101;SDS011;34913;47.520;19.186;2023-07-09T07:00:42;8.35;;;3.10;;
49101;SDS011;34913;47.520;19.186;2023-07-09T07:03:08;4.97;;;2.85;;
49101;SDS011;34913;47.520;19.186;2023-07-09T07:05:34;4.68;;;2.85;;
49101;SDS011;34913;47.520;19.186;2023-07-09T07:08:01;4.30;;;2.85;;
49101;SDS011;34913;47.520;19.186;2023-07-09T07:10:28;3.63;;;2.72;;
49101;SDS011;34913;47.520;19.186;2023-07-09T07:12:54;4.32;;;2.80;;
49101;SDS011;34913;47.520;19.186;2023-07-09T07:15:20;3.90;;;2.53;;
49101;SDS011;34913;47.520;19.186;2023-07-09T07:17:46;7.28;;;2.80;;
49101;SDS011;34913;47.520;19.186;2023-07-09T07:20:11;4.50;;;2.88;;
49101;SDS011;34913;47.520;19.186;2023-07-09T07:22:38;3.47;;;3.00;;
49101;SDS011;34913;47.520;19.186;2023-07-09T07:25:04;5.95;;;3.10;;
49101;SDS011;34913;47.520;19.186;2023-07-09T07:27:30;3.55;;;2.80;;
49101;SDS011;34913;47.520;19.186;2023-07-09T07:29:56;6.65;;;2.90;;
49101;SDS011;34913;47.520;19.186;2023-07-09T07:32:22;3.88;;;2.90;;
49101;SDS011;34913;47.520;19.186;2023-07-09T07:34:48;5.72;;;2.70;;
49101;SDS011;34913;47.520;19.186;2023-07-09T07:37:14;4.20;;;2.80;;
49101;SDS011;34913;47.520;19.186;2023-07-09T07:39:40;2.88;;;2.50;;
49101;SDS011;34913;47.520;19.186;2023-07-09T07:42:06;3.15;;;2.70;;
49101;SDS011;34913;47.520;19.186;2023-07-09T07:44:32;6.90;;;2.67;;
49101;SDS011;34913;47.520;19.186;2023-07-09T07:46:57;3.00;;;2.38;;
49101;SDS011;34913;47.520;19.186;2023-07-09T07:49:23;3.83;;;2.80;;
49101;SDS011;34913;47.520;19.186;2023-07-09T07:51:48;3.78;;;2.30;;
49101;SDS011;34913;47.520;19.186;2023-07-09T07:54:14;6.18;;;2.95;;
49101;SDS011;34913;47.520;19.186;2023-07-09T07:56:39;5.97;;;2.63;;
49101;SDS011;34913;47.520;19.186;2023-07-09T07:59:05;5.47;;;2.78;;
49101;SDS011;34913;47.520;19.186;2023-07-09T08:01:30;3.92;;;2.70;;
49101;SDS011;34913;47.520;19.186;2023-07-09T08:03:56;3.20;;;2.72;;
49101;SDS011;34913;47.520;19.186;2023-07-09T08:06:21;4.93;;;2.85;;
49101;SDS011;34913;47.520;19.186;2023-07-09T08:08:47;4.38;;;2.88;;
49101;SDS011;34913;47.520;19.186;2023-07-09T08:11:13;5.55;;;2.65;;
49101;SDS011;34913;47.520;19.186;2023-07-09T08:13:39;4.45;;;2.60;;
49101;SDS011;34913;47.520;19.186;2023-07-09T08:16:05;5.10;;;3.10;;
49101;SDS011;34913;47.520;19.186;2023-07-09T08:18:32;8.55;;;3.10;;
49101;SDS011;34913;47.520;19.186;2023-07-09T08:20:58;3.67;;;2.60;;
49101;SDS011;34913;47.520;19.186;2023-07-09T08:23:24;3.80;;;3.30;;
49101;SDS011;34913;47.520;19.186;2023-07-09T08:25:54;7.28;;;3.97;;
49101;SDS011;34913;47.520;19.186;2023-07-09T08:28:19;7.10;;;3.17;;
49101;SDS011;34913;47.520;19.186;2023-07-09T08:30:45;4.65;;;2.60;;
49101;SDS011;34913;47.520;19.186;2023-07-09T08:33:10;4.05;;;2.38;;
49101;SDS011;34913;47.520;19.186;2023-07-09T08:35:36;3.67;;;2.40;;
49101;SDS011;34913;47.520;19.186;2023-07-09T08:38:01;3.15;;;2.33;;
49101;SDS011;34913;47.520;19.186;2023-07-09T08:40:26;4.22;;;2.58;;
49101;SDS011;34913;47.520;19.186;2023-07-09T08:42:53;4.43;;;2.55;;
49101;SDS011;34913;47.520;19.186;2023-07-09T08:45:25;3.13;;;2.53;;
49101;SDS011;34913;47.520;19.186;2023-07-09T08:48:01;2.83;;;2.42;;
49101;SDS011;34913;47.520;19.186;2023-07-09T08:50:47;2.70;;;2.30;;
49101;SDS011;34913;47.520;19.186;2023-07-09T08:53:20;5.63;;;2.65;;
49101;SDS011;34913;47.520;19.186;2023-07-09T08:55:53;5.32;;;2.25;;
49101;SDS011;34913;47.520;19.186;2023-07-09T08:58:25;3.58;;;2.30;;
49101;SDS011;34913;47.520;19.186;2023-07-09T09:00:54;3.35;;;2.17;;
49101;SDS011;34913;47.520;19.186;2023-07-09T09:06:27;2.50;;;2.30;;
49101;SDS011;34913;47.520;19.186;2023-07-09T09:09:16;6.32;;;2.28;;
49101;SDS011;34913;47.520;19.186;2023-07-09T09:11:52;6.47;;;2.90;;
49101;SDS011;34913;47.520;19.186;2023-07-09T09:14:42;2.58;;;2.38;;
49101;SDS011;34913;47.520;19.186;2023-07-09T09:17:13;4.13;;;2.55;;
49101;SDS011;34913;47.520;19.186;2023-07-09T09:19:44;2.50;;;2.30;;
49101;SDS011;34913;47.520;19.186;2023-07-09T09:22:15;2.42;;;2.22;;
49101;SDS011;34913;47.520;19.186;2023-07-09T09:27:28;3.08;;;2.30;;
49101;SDS011;34913;47.520;19.186;2023-07-09T09:29:54;4.45;;;2.33;;
49101;SDS011;34913;47.520;19.186;2023-07-09T09:32:29;3.08;;;2.50;;
49101;SDS011;34913;47.520;19.186;2023-07-09T09:35:10;2.67;;;2.20;;
49101;SDS011;34913;47.520;19.186;2023-07-09T09:37:38;3.78;;;2.10;;
49101;SDS011;34913;47.520;19.186;2023-07-09T09:40:04;2.53;;;2.15;;
49101;SDS011;34913;47.520;19.186;2023-07-09T09:42:30;2.97;;;2.10;;
49101;SDS011;34913;47.520;19.186;2023-07-09T09:44:56;2.78;;;2.00;;
49101;SDS011;34913;47.520;19.186;2023-07-09T09:47:24;2.00;;;1.88;;
49101;SDS011;34913;47.520;19.186;2023-07-09T09:49:52;2.83;;;2.08;;
49101;SDS011;34913;47.520;19.186;2023-07-09T09:52:18;2.95;;;2.25;;
49101;SDS011;34913;47.520;19.186;2023-07-09T09:54:48;3.80;;;2.20;;
49101;SDS011;34913;47.520;19.186;2023-07-09T09:57:21;2.83;;;2.38;;
49101;SDS011;34913;47.520;19.186;2023-07-09T09:59:49;4.50;;;2.10;;
49101;SDS011;34913;47.520;19.186;2023-07-09T10:02:24;2.40;;;2.20;;
49101;SDS011;34913;47.520;19.186;2023-07-09T10:04:50;3.58;;;2.42;;
49101;SDS011;34913;47.520;19.186;2023-07-09T10:07:21;3.63;;;2.20;;
49101;SDS011;34913;47.520;19.186;2023-07-09T10:09:59;3.17;;;2.10;;
49101;SDS011;34913;47.520;19.186;2023-07-09T10:15:20;3.20;;;2.08;;
49101;SDS011;34913;47.520;19.186;2023-07-09T10:18:09;3.72;;;2.15;;
49101;SDS011;34913;47.520;19.186;2023-07-09T10:20:44;4.07;;;2.00;;
49101;SDS011;34913;47.520;19.186;2023-07-09T10:26:15;2.83;;;2.10;;
49101;SDS011;34913;47.520;19.186;2023-07-09T10:29:18;4.07;;;2.10;;
49101;SDS011;34913;47.520;19.186;2023-07-09T10:52:07;3.42;;;1.92;;
49101;SDS011;34913;47.520;19.186;2023-07-09T11:00:34;5.68;;;2.30;;
49101;SDS011;34913;47.520;19.186;2023-07-09T11:03:09;2.47;;;2.10;;
49101;SDS011;34913;47.520;19.186;2023-07-09T11:05:51;2.55;;;2.00;;
49101;SDS011;34913;47.520;19.186;2023-07-09T11:08:20;2.70;;;2.30;;
49101;SDS011;34913;47.520;19.186;2023-07-09T11:10:54;3.97;;;2.10;;
49101;SDS011;34913;47.520;19.186;2023-07-09T11:13:31;2.47;;;2.28;;
49101;SDS011;34913;47.520;19.186;2023-07-09T11:16:12;3.08;;;2.40;;
49101;SDS011;34913;47.520;19.186;2023-07-09T11:18:51;4.63;;;2.13;;
49101;SDS011;34913;47.520;19.186;2023-07-09T11:21:20;4.90;;;2.35;;
49101;SDS011;34913;47.520;19.186;2023-07-09T11:23:47;4.13;;;2.17;;
49101;SDS011;34913;47.520;19.186;2023-07-09T11:31:42;2.30;;;2.10;;
49101;SDS011;34913;47.520;19.186;2023-07-09T11:36:49;3.67;;;2.03;;
49101;SDS011;34913;47.520;19.186;2023-07-09T11:41:54;3.03;;;2.40;;
49101;SDS011;34913;47.520;19.186;2023-07-09T11:44:27;2.50;;;2.15;;
49101;SDS011;34913;47.520;19.186;2023-07-09T11:47:01;2.30;;;2.10;;
49101;SDS011;34913;47.520;19.186;2023-07-09T11:50:13;3.28;;;2.10;;
49101;SDS011;34913;47.520;19.186;2023-07-09T11:55:21;3.42;;;2.20;;
49101;SDS011;34913;47.520;19.186;2023-07-09T11:58:11;3.15;;;2.20;;
49101;SDS011;34913;47.520;19.186;2023-07-09T12:03:28;3.05;;;2.40;;
49101;SDS011;34913;47.520;19.186;2023-07-09T12:06:01;5.40;;;2.70;;
49101;SDS011;34913;47.520;19.186;2023-07-09T12:08:33;2.42;;;1.90;;
49101;SDS011;34913;47.520;19.186;2023-07-09T12:11:01;3.97;;;2.20;;
49101;SDS011;34913;47.520;19.186;2023-07-09T12:13:27;3.42;;;2.25;;
49101;SDS011;34913;47.520;19.186;2023-07-09T12:15:53;6.00;;;2.40;;
49101;SDS011;34913;47.520;19.186;2023-07-09T12:18:18;4.00;;;2.40;;
49101;SDS011;34913;47.520;19.186;2023-07-09T12:20:53;3.22;;;2.25;;
49101;SDS011;34913;47.520;19.186;2023-07-09T12:25:54;4.18;;;2.30;;
49101;SDS011;34913;47.520;19.186;2023-07-09T12:28:20;2.65;;;2.28;;
49101;SDS011;34913;47.520;19.186;2023-07-09T12:30:47;4.60;;;3.00;;
49101;SDS011;34913;47.520;19.186;2023-07-09T12:33:16;3.15;;;2.50;;
49101;SDS011;34913;47.520;19.186;2023-07-09T12:35:43;3.92;;;2.15;;
49101;SDS011;34913;47.520;19.186;2023-07-09T12:38:15;4.82;;;2.35;;
49101;SDS011;34913;47.520;19.186;2023-07-09T12:40:45;2.95;;;2.30;;
49101;SDS011;34913;47.520;19.186;2023-07-09T12:43:10;2.50;;;2.15;;
49101;SDS011;34913;47.520;19.186;2023-07-09T12:45:36;3.65;;;2.13;;
49101;SDS011;34913;47.520;19.186;2023-07-09T12:48:02;2.67;;;2.40;;
49101;SDS011;34913;47.520;19.186;2023-07-09T12:50:29;2.65;;;2.45;;
49101;SDS011;34913;47.520;19.186;2023-07-09T12:52:56;3.03;;;2.38;;
49101;SDS011;34913;47.520;19.186;2023-07-09T12:55:28;3.80;;;2.40;;
49101;SDS011;34913;47.520;19.186;2023-07-09T12:57:57;3.55;;;2.40;;
49101;SDS011;34913;47.520;19.186;2023-07-09T13:00:30;4.63;;;2.40;;
49101;SDS011;34913;47.520;19.186;2023-07-09T13:02:57;2.85;;;2.53;;
49101;SDS011;34913;47.520;19.186;2023-07-09T13:05:24;3.65;;;2.33;;
49101;SDS011;34913;47.520;19.186;2023-07-09T13:08:40;4.50;;;2.50;;
49101;SDS011;34913;47.520;19.186;2023-07-09T13:10:40;2.40;;;2.20;;
49101;SDS011;34913;47.520;19.186;2023-07-09T13:13:10;3.90;;;2.40;;
49101;SDS011;34913;47.520;19.186;2023-07-09T13:15:41;4.32;;;2.30;;
49101;SDS011;34913;47.520;19.186;2023-07-09T13:18:14;3.83;;;2.60;;
49101;SDS011;34913;47.520;19.186;2023-07-09T13:20:41;2.20;;;2.03;;
49101;SDS011;34913;47.520;19.186;2023-07-09T13:23:15;2.55;;;2.30;;
49101;SDS011;34913;47.520;19.186;2023-07-09T13:25:42;4.13;;;2.60;;
49101;SDS011;34913;47.520;19.186;2023-07-09T13:28:14;3.13;;;2.40;;
49101;SDS011;34913;47.520;19.186;2023-07-09T13:30:42;2.83;;;2.30;;
49101;SDS011;34913;47.520;19.186;2023-07-09T13:33:08;3.38;;;2.30;;
49101;SDS011;34913;47.520;19.186;2023-07-09T13:35:35;3.30;;;2.42;;
49101;SDS011;34913;47.520;19.186;2023-07-09T13:38:00;4.13;;;2.55;;
49101;SDS011;34913;47.520;19.186;2023-07-09T13:40:26;5.70;;;2.65;;
49101;SDS011;34913;47.520;19.186;2023-07-09T13:42:52;4.75;;;2.42;;
49101;SDS011;34913;47.520;19.186;2023-07-09T13:45:21;3.55;;;2.63;;
49101;SDS011;34913;47.520;19.186;2023-07-09T13:47:49;3.17;;;2.60;;
49101;SDS011;34913;47.520;19.186;2023-07-09T13:50:18;4.25;;;2.10;;
49101;SDS011;34913;47.520;19.186;2023-07-09T13:52:44;7.22;;;2.70;;
49101;SDS011;34913;47.520;19.186;2023-07-09T13:55:18;3.95;;;2.65;;
49101;SDS011;34913;47.520;19.186;2023-07-09T13:57:46;3.13;;;2.50;;
49101;SDS011;34913;47.520;19.186;2023-07-09T14:00:12;2.80;;;2.40;;
49101;SDS011;34913;47.520;19.186;2023-07-09T14:02:38;4.57;;;2.30;;
49101;SDS011;34913;47.520;19.186;2023-07-09T14:05:04;2.78;;;2.40;;
49101;SDS011;34913;47.520;19.186;2023-07-09T14:07:35;4.97;;;2.50;;
49101;SDS011;34913;47.520;19.186;2023-07-09T14:10:03;2.60;;;2.40;;
49101;SDS011;34913;47.520;19.186;2023-07-09T14:12:30;3.72;;;2.30;;
49101;SDS011;34913;47.520;19.186;2023-07-09T14:14:57;4.43;;;2.58;;
49101;SDS011;34913;47.520;19.186;2023-07-09T14:17:24;2.58;;;2.38;;
49101;SDS011;34913;47.520;19.186;2023-07-09T14:19:51;2.60;;;2.40;;
49101;SDS011;34913;47.520;19.186;2023-07-09T14:22:35;3.55;;;2.40;;
49101;SDS011;34913;47.520;19.186;2023-07-09T14:25:03;3.40;;;2.60;;
49101;SDS011;34913;47.520;19.186;2023-07-09T14:27:29;5.43;;;2.30;;
49101;SDS011;34913;47.520;19.186;2023-07-09T14:29:54;4.28;;;2.60;;
49101;SDS011;34913;47.520;19.186;2023-07-09T14:34:48;3.75;;;2.58;;
49101;SDS011;34913;47.520;19.186;2023-07-09T14:37:14;4.22;;;2.63;;
49101;SDS011;34913;47.520;19.186;2023-07-09T14:39:39;4.55;;;2.97;;
49101;SDS011;34913;47.520;19.186;2023-07-09T14:42:07;5.15;;;2.50;;
49101;SDS011;34913;47.520;19.186;2023-07-09T14:44:36;3.63;;;2.60;;
49101;SDS011;34913;47.520;19.186;2023-07-09T14:47:03;3.70;;;2.60;;
49101;SDS011;34913;47.520;19.186;2023-07-09T14:49:35;2.97;;;2.50;;
49101;SDS011;34913;47.520;19.186;2023-07-09T14:52:01;3.65;;;2.45;;
49101;SDS011;34913;47.520;19.186;2023-07-09T14:54:28;5.93;;;2.47;;
49101;SDS011;34913;47.520;19.186;2023-07-09T14:56:56;3.50;;;2.33;;
49101;SDS011;34913;47.520;19.186;2023-07-09T14:59:23;4.22;;;2.50;;
49101;SDS011;34913;47.520;19.186;2023-07-09T15:01:49;4.28;;;2.50;;
49101;SDS011;34913;47.520;19.186;2023-07-09T15:04:25;3.65;;;2.67;;
49101;SDS011;34913;47.520;19.186;2023-07-09T15:06:55;3.60;;;2.30;;
49101;SDS011;34913;47.520;19.186;2023-07-09T15:09:21;2.90;;;2.60;;
49101;SDS011;34913;47.520;19.186;2023-07-09T15:11:52;2.83;;;2.50;;
49101;SDS011;34913;47.520;19.186;2023-07-09T15:14:19;3.38;;;2.47;;
49101;SDS011;34913;47.520;19.186;2023-07-09T15:16:48;3.03;;;2.60;;
49101;SDS011;34913;47.520;19.186;2023-07-09T15:19:15;3.47;;;2.40;;
49101;SDS011;34913;47.520;19.186;2023-07-09T15:21:42;3.75;;;2.70;;
49101;SDS011;34913;47.520;19.186;2023-07-09T15:24:41;3.17;;;2.63;;
49101;SDS011;34913;47.520;19.186;2023-07-09T15:27:00;2.80;;;2.55;;
49101;SDS011;34913;47.520;19.186;2023-07-09T15:29:29;5.10;;;2.72;;
49101;SDS011;34913;47.520;19.186;2023-07-09T15:31:55;3.50;;;2.70;;
49101;SDS011;34913;47.520;19.186;2023-07-09T15:34:21;4.20;;;2.78;;
49101;SDS011;34913;47.520;19.186;2023-07-09T15:36:47;4.97;;;2.83;;
49101;SDS011;34913;47.520;19.186;2023-07-09T15:39:14;4.07;;;2.50;;
49101;SDS011;34913;47.520;19.186;2023-07-09T15:41:40;5.05;;;2.90;;
49101;SDS011;34913;47.520;19.186;2023-07-09T15:44:09;3.00;;;2.70;;